createdAt,value
2024-03-14T00:02:58.564Z,98392.09
2024-03-14T00:06:08.323Z,98389.63
2024-03-14T00:09:15.734Z,98395.38
2024-03-14T00:12:22.298Z,98391.75
2024-03-14T00:15:28.698Z,98392.09
2024-03-14T00:18:34.608Z,98381.41
2024-03-14T00:21:44.396Z,98386.34
2024-03-14T00:24:51.352Z,98392.09
2024-03-14T00:27:58.860Z,98394.53
2024-03-14T00:31:05.579Z,98394.38
2024-03-14T00:34:13.582Z,98390.44
2024-03-14T00:37:21.697Z,98380.94
2024-03-14T00:40:28.014Z,98378.13
2024-03-14T00:43:34.459Z,98373.53
2024-03-14T00:46:41.594Z,98373.38
2024-03-14T00:49:47.006Z,98363.03
2024-03-14T00:52:55.915Z,98358.00
2024-03-14T00:56:03.222Z,98361.41
2024-03-14T00:59:11.105Z,98358.97
2024-03-14T01:02:16.730Z,98365.22
2024-03-14T01:05:22.920Z,98364.88
2024-03-14T01:08:31.654Z,98366.50
2024-03-14T01:11:37.844Z,98362.75
2024-03-14T01:14:43.280Z,98358.97
2024-03-14T01:17:49.627Z,98355.53
2024-03-14T01:20:55.426Z,98349.13
2024-03-14T01:24:05.134Z,98342.91
2024-03-14T01:27:11.009Z,98344.53
2024-03-14T01:30:17.582Z,98344.53
2024-03-14T01:33:23.162Z,98352.06
2024-03-14T01:36:30.124Z,98350.94
2024-03-14T01:39:39.006Z,98351.09
2024-03-14T01:42:47.554Z,98355.38
2024-03-14T01:45:52.889Z,98347.50
2024-03-14T01:48:59.715Z,98341.59
2024-03-14T01:52:05.469Z,98343.56
2024-03-14T01:55:14.919Z,98352.25
2024-03-14T01:58:27.913Z,98341.09
2024-03-14T02:01:34.157Z,98345.53
2024-03-14T02:04:57.134Z,98338.47
2024-03-14T02:08:03.356Z,98336.50
2024-03-14T02:11:14.241Z,98328.66
2024-03-14T02:14:20.403Z,98332.22
2024-03-14T02:17:25.785Z,98340.94
2024-03-14T02:20:32.122Z,98343.72
2024-03-14T02:23:40.236Z,98331.44
2024-03-14T02:26:46.665Z,98333.25
2024-03-14T02:29:52.071Z,98334.88
2024-03-14T02:32:58.290Z,98338.31
2024-03-14T02:36:04.247Z,98338.97
2024-03-14T02:39:13.004Z,98330.63
2024-03-14T02:42:19.377Z,98336.53
2024-03-14T02:45:26.046Z,98334.72
2024-03-14T02:48:32.397Z,98333.41
2024-03-14T02:51:37.791Z,98339.81
2024-03-14T02:54:46.849Z,98337.66
2024-03-14T02:57:52.213Z,98339.31
2024-03-14T03:00:58.837Z,98333.41
2024-03-14T03:04:04.429Z,98335.22
2024-03-14T03:07:11.228Z,98334.88
2024-03-14T03:10:23.965Z,98335.38
2024-03-14T03:13:30.304Z,98341.94
2024-03-14T03:16:35.715Z,98342.91
2024-03-14T03:19:42.054Z,98339.47
2024-03-14T03:23:00.163Z,98339.16
2024-03-14T03:26:09.580Z,98347.16
2024-03-14T03:29:15.557Z,98342.09
2024-03-14T03:32:22.189Z,98339.78
2024-03-14T03:35:27.530Z,98334.88
2024-03-14T03:38:33.868Z,98340.44
2024-03-14T03:41:39.240Z,98347.47
2024-03-14T03:44:46.492Z,98340.44
2024-03-14T03:47:49.410Z,98337.34
2024-03-14T03:50:56.405Z,98340.94
2024-03-14T03:53:59.172Z,98341.59
2024-03-14T03:57:08.448Z,98341.25
2024-03-14T04:00:43.629Z,98347.81
2024-03-14T04:03:52.437Z,98338.13
2024-03-14T04:06:57.841Z,98338.13
2024-03-14T04:10:04.403Z,98348.91
2024-03-14T04:13:16.721Z,98348.41
2024-03-14T04:16:23.171Z,98350.06
2024-03-14T04:19:28.467Z,98352.69
2024-03-14T04:22:35.882Z,98349.25
2024-03-14T04:25:42.321Z,98351.88
2024-03-14T04:28:51.410Z,98344.97
2024-03-14T04:31:58.379Z,98342.34
2024-03-14T04:35:05.455Z,98349.41
2024-03-14T04:38:10.902Z,98358.41
2024-03-14T04:41:18.620Z,98351.84
2024-03-14T04:44:28.263Z,98356.41
2024-03-14T04:47:34.533Z,98360.00
2024-03-14T04:50:41.692Z,98356.72
2024-03-14T04:53:48.002Z,98366.53
2024-03-14T04:56:53.471Z,98361.81
2024-03-14T05:00:02.478Z,98367.38
2024-03-14T05:03:08.823Z,98366.06
2024-03-14T05:06:15.048Z,98365.78
2024-03-14T05:09:23.311Z,98369.88
2024-03-14T05:12:29.813Z,98358.06
2024-03-14T05:15:38.462Z,98361.03
2024-03-14T05:18:45.556Z,98356.25
2024-03-14T05:21:52.144Z,98366.91
2024-03-14T05:25:00.052Z,98378.50
2024-03-14T05:28:08.036Z,98374.41
2024-03-14T05:31:20.769Z,98376.88
2024-03-14T05:34:27.069Z,98372.16
2024-03-14T05:37:33.352Z,98377.06
2024-03-14T05:40:42.601Z,98374.94
2024-03-14T05:43:49.287Z,98373.81
2024-03-14T05:47:00.253Z,98376.13
2024-03-14T05:50:11.901Z,98373.50
2024-03-14T05:53:21.422Z,98369.34
2024-03-14T05:56:27.667Z,98380.50
2024-03-14T05:59:34.412Z,98375.59
2024-03-14T06:02:43.378Z,98376.88
2024-03-14T06:05:51.449Z,98379.00
2024-03-14T06:08:57.729Z,98381.09
2024-03-14T06:12:03.405Z,98385.06
2024-03-14T06:15:13.544Z,98380.16
2024-03-14T06:18:23.444Z,98386.38
2024-03-14T06:21:31.299Z,98381.34
2024-03-14T06:24:36.704Z,98380.50
2024-03-14T06:27:43.222Z,98381.69
2024-03-14T06:30:51.151Z,98387.06
2024-03-14T06:34:00.001Z,98382.44
2024-03-14T06:37:05.728Z,98373.41
2024-03-14T06:40:15.584Z,98386.59
2024-03-14T06:43:22.943Z,98386.41
2024-03-14T06:46:30.531Z,98397.72
2024-03-14T06:49:40.120Z,98396.41
2024-03-14T06:52:46.367Z,98404.59
2024-03-14T06:55:52.640Z,98400.41
2024-03-14T06:58:58.976Z,98399.00
2024-03-14T07:02:04.249Z,98402.28
2024-03-14T07:05:17.080Z,98404.56
2024-03-14T07:08:22.774Z,98406.94
2024-03-14T07:11:30.220Z,98403.03
2024-03-14T07:14:35.683Z,98412.38
2024-03-14T07:17:42.702Z,98415.34
2024-03-14T07:20:51.132Z,98412.88
2024-03-14T07:23:57.637Z,98417.63
2024-03-14T07:27:04.968Z,98422.22
2024-03-14T07:30:16.497Z,98423.22
2024-03-14T07:33:22.234Z,98416.66
2024-03-14T07:36:32.092Z,98423.56
2024-03-14T07:39:37.871Z,98407.97
2024-03-14T07:42:44.751Z,98398.78
2024-03-14T07:45:50.547Z,98417.97
2024-03-14T07:48:57.487Z,98417.78
2024-03-14T07:52:07.071Z,98408.41
2024-03-14T07:55:13.262Z,98418.69
2024-03-14T07:58:18.724Z,98410.69
2024-03-14T08:01:29.441Z,98415.22
2024-03-14T08:04:36.229Z,98410.63
2024-03-14T08:07:44.972Z,98409.00
2024-03-14T08:10:50.477Z,98401.56
2024-03-14T08:14:00.333Z,98402.13
2024-03-14T08:17:12.908Z,98405.31
2024-03-14T08:20:23.466Z,98392.63
2024-03-14T08:23:33.777Z,98403.03
2024-03-14T08:26:40.201Z,98401.94
2024-03-14T08:29:46.312Z,98399.44
2024-03-14T08:32:53.512Z,98396.28
2024-03-14T08:35:58.942Z,98396.97
2024-03-14T08:39:08.157Z,98400.19
2024-03-14T08:42:13.981Z,98401.06
2024-03-14T08:45:20.364Z,98397.03
2024-03-14T08:48:26.215Z,98410.50
2024-03-14T08:51:33.495Z,98404.81
2024-03-14T08:54:46.528Z,98418.44
2024-03-14T08:57:53.206Z,98419.38
2024-03-14T09:00:59.810Z,98416.91
2024-03-14T09:04:08.965Z,98415.53
2024-03-14T09:07:16.069Z,98410.81
2024-03-14T09:10:27.492Z,98419.72
2024-03-14T09:13:33.455Z,98411.94
2024-03-14T09:16:40.034Z,98416.84
2024-03-14T09:19:45.665Z,98406.00
2024-03-14T09:22:55.776Z,98416.78
2024-03-14T09:26:03.881Z,98419.44
2024-03-14T09:29:10.090Z,98416.69
2024-03-14T09:32:15.406Z,98413.03
2024-03-14T09:35:28.432Z,98412.84
2024-03-14T09:38:36.351Z,98414.47
2024-03-14T09:41:47.050Z,98413.47
2024-03-14T09:44:52.490Z,98411.19
2024-03-14T09:48:00.497Z,98416.38
2024-03-14T09:51:13.579Z,98412.78
2024-03-14T09:54:21.489Z,98408.38
2024-03-14T09:57:31.165Z,98400.59
2024-03-14T10:00:37.637Z,98403.66
2024-03-14T10:03:43.549Z,98406.59
2024-03-14T10:06:49.994Z,98401.03
2024-03-14T10:09:55.529Z,98402.44
2024-03-14T10:13:04.624Z,98402.50
2024-03-14T10:16:10.447Z,98396.19
2024-03-14T10:19:17.205Z,98386.59
2024-03-14T10:22:22.806Z,98395.34
2024-03-14T10:25:29.762Z,98386.91
2024-03-14T10:28:41.009Z,98388.03
2024-03-14T10:31:47.577Z,98389.09
2024-03-14T10:34:53.322Z,98382.97
2024-03-14T10:38:02.373Z,98379.38
2024-03-14T10:41:11.335Z,98387.06
2024-03-14T10:44:26.363Z,98391.59
2024-03-14T10:47:34.301Z,98393.63
2024-03-14T10:50:42.601Z,98387.28
2024-03-14T10:53:51.848Z,98382.75
2024-03-14T10:57:01.181Z,98375.13
2024-03-14T11:00:15.593Z,98382.81
2024-03-14T11:03:24.118Z,98385.53
2024-03-14T11:06:41.128Z,98381.84
2024-03-14T11:10:09.831Z,98379.63
2024-03-14T11:13:27.765Z,98383.25
2024-03-14T11:16:38.853Z,98376.78
2024-03-14T11:19:54.338Z,98382.44
2024-03-14T11:23:07.153Z,98374.19
2024-03-14T11:26:20.768Z,98372.88
2024-03-14T11:29:28.677Z,98370.97
2024-03-14T11:32:36.881Z,98375.31
2024-03-14T11:35:45.482Z,98376.03
2024-03-14T11:38:52.090Z,98369.91
2024-03-14T11:42:12.894Z,98364.50
2024-03-14T11:45:20.215Z,98367.66
2024-03-14T11:48:32.838Z,98370.88
2024-03-14T11:51:42.779Z,98353.03
2024-03-14T11:54:49.852Z,98374.00
2024-03-14T11:57:55.710Z,98364.06
2024-03-14T12:01:02.194Z,98350.41
2024-03-14T12:04:14.946Z,98350.34
2024-03-14T12:07:22.392Z,98345.72
2024-03-14T12:10:28.286Z,98345.66
2024-03-14T12:13:34.603Z,98340.81
2024-03-14T12:16:47.538Z,98338.34
2024-03-14T12:20:02.532Z,98341.75
2024-03-14T12:23:10.429Z,98338.66
2024-03-14T12:26:16.801Z,98333.69
2024-03-14T12:29:22.525Z,98332.28
2024-03-14T12:32:31.362Z,98337.44
2024-03-14T12:35:39.704Z,98330.50
2024-03-14T12:38:52.002Z,98324.41
2024-03-14T12:41:58.102Z,98327.06
2024-03-14T12:45:04.783Z,98316.78
2024-03-14T12:48:12.472Z,98322.50
2024-03-14T12:51:25.804Z,98315.69
2024-03-14T12:54:39.879Z,98315.25
2024-03-14T12:57:48.595Z,98319.38
2024-03-14T13:00:58.398Z,98321.09
2024-03-14T13:04:08.484Z,98316.66
2024-03-14T13:07:21.069Z,98320.53
2024-03-14T13:10:28.328Z,98311.22
2024-03-14T13:13:34.895Z,98312.19
2024-03-14T13:16:42.241Z,98308.56
2024-03-14T13:19:59.372Z,98309.47
2024-03-14T13:23:08.223Z,98308.81
2024-03-14T13:26:19.291Z,98311.16
2024-03-14T13:29:26.865Z,98311.66
2024-03-14T13:32:32.264Z,98301.50
2024-03-14T13:35:41.919Z,98300.75
2024-03-14T13:38:50.674Z,98303.59
2024-03-14T13:41:59.739Z,98302.75
2024-03-14T13:45:09.155Z,98302.84
2024-03-14T13:48:19.280Z,98300.84
2024-03-14T13:51:24.740Z,98296.81
2024-03-14T13:54:34.715Z,98299.25
2024-03-14T13:57:40.547Z,98306.22
2024-03-14T14:00:51.684Z,98301.06
2024-03-14T14:04:00.910Z,98295.13
2024-03-14T14:07:07.419Z,98288.53
2024-03-14T14:10:16.262Z,98300.16
2024-03-14T14:13:22.716Z,98292.09
2024-03-14T14:16:30.589Z,98285.28
2024-03-14T14:19:38.181Z,98290.38
2024-03-14T14:22:43.669Z,98285.59
2024-03-14T14:25:53.269Z,98291.59
2024-03-14T14:28:59.162Z,98295.16
2024-03-14T14:32:05.688Z,98293.28
2024-03-14T14:35:11.637Z,98297.63
2024-03-14T14:38:20.036Z,98292.19
2024-03-14T14:41:28.632Z,98287.13
2024-03-14T14:44:34.857Z,98284.31
2024-03-14T14:47:42.203Z,98289.78
2024-03-14T14:50:48.745Z,98279.72
2024-03-14T14:53:54.118Z,98288.78
2024-03-14T14:57:07.235Z,98285.03
2024-03-14T15:00:15.871Z,98281.59
2024-03-14T15:03:23.698Z,98285.41
2024-03-14T15:06:29.256Z,98284.69
2024-03-14T15:09:35.763Z,98279.78
2024-03-14T15:12:50.665Z,98281.22
2024-03-14T15:16:09.431Z,98286.94
2024-03-14T15:19:17.036Z,98286.78
2024-03-14T15:22:23.958Z,98286.19
2024-03-14T15:25:29.962Z,98277.63
2024-03-14T15:28:38.950Z,98276.16
2024-03-14T15:31:44.414Z,98283.03
2024-03-14T15:34:50.920Z,98279.97
2024-03-14T15:37:59.793Z,98284.63
2024-03-14T15:41:06.063Z,98287.47
2024-03-14T15:44:14.231Z,98278.97
2024-03-14T15:47:20.331Z,98284.59
2024-03-14T15:50:25.910Z,98291.34
2024-03-14T15:53:34.153Z,98285.09
2024-03-14T15:56:39.506Z,98287.41
2024-03-14T15:59:49.018Z,98290.69
2024-03-14T16:02:56.706Z,98276.91
2024-03-14T16:06:05.391Z,98287.50
2024-03-14T16:09:11.457Z,98286.69
2024-03-14T16:12:18.213Z,98285.81
2024-03-14T16:15:26.278Z,98289.63
2024-03-14T16:18:35.466Z,98290.78
2024-03-14T16:21:41.953Z,98296.63
2024-03-14T16:24:48.220Z,98291.47
2024-03-14T16:27:54.294Z,98299.31
2024-03-14T16:31:06.857Z,98294.91
2024-03-14T16:34:12.406Z,98302.47
2024-03-14T16:37:18.796Z,98294.63
2024-03-14T16:40:24.175Z,98301.66
2024-03-14T16:43:30.296Z,98300.72
2024-03-14T16:46:39.851Z,98296.94
2024-03-14T16:49:46.114Z,98312.72
2024-03-14T16:52:52.976Z,98302.22
2024-03-14T16:55:59.146Z,98308.41
2024-03-14T16:59:07.593Z,98312.63
2024-03-14T17:02:18.116Z,98305.72
2024-03-14T17:05:23.748Z,98311.03
2024-03-14T17:08:30.126Z,98309.41
2024-03-14T17:11:36.144Z,98307.78
2024-03-14T17:14:42.477Z,98307.94
2024-03-14T17:17:51.108Z,98309.38
2024-03-14T17:21:00.073Z,98316.56
2024-03-14T17:24:05.872Z,98315.31
2024-03-14T17:27:13.914Z,98319.97
2024-03-14T17:30:19.633Z,98314.63
2024-03-14T17:33:29.754Z,98313.88
2024-03-14T17:36:35.330Z,98321.34
2024-03-14T17:39:43.202Z,98311.75
2024-03-14T17:42:50.294Z,98307.59
2024-03-14T17:45:57.055Z,98313.09
2024-03-14T17:49:07.288Z,98317.47
2024-03-14T17:52:14.006Z,98319.28
2024-03-14T17:55:19.362Z,98314.59
2024-03-14T17:58:25.558Z,98331.81
2024-03-14T18:01:31.707Z,98324.13
2024-03-14T18:04:40.573Z,98324.31
2024-03-14T18:07:48.294Z,98331.03
2024-03-14T18:10:54.770Z,98327.44
2024-03-14T18:14:00.223Z,98329.75
2024-03-14T18:17:06.738Z,98329.59
2024-03-14T18:20:15.176Z,98331.09
2024-03-14T18:23:21.525Z,98327.50
2024-03-14T18:26:27.199Z,98320.78
2024-03-14T18:29:33.415Z,98326.84
2024-03-14T18:32:44.607Z,98327.00
2024-03-14T18:35:54.377Z,98329.47
2024-03-14T18:39:00.696Z,98325.19
2024-03-14T18:42:10.791Z,98332.25
2024-03-14T18:45:18.641Z,98322.59
2024-03-14T18:48:25.639Z,98326.69
2024-03-14T18:51:33.619Z,98328.31
2024-03-14T18:54:48.213Z,98328.97
2024-03-14T18:57:55.779Z,98329.63
2024-03-14T19:01:08.114Z,98327.81
2024-03-14T19:04:13.866Z,98324.38
2024-03-14T19:07:22.757Z,98327.50
2024-03-14T19:10:30.227Z,98323.75
2024-03-14T19:13:40.423Z,98327.16
2024-03-14T19:16:47.394Z,98330.13
2024-03-14T19:19:54.313Z,98329.47
2024-03-14T19:23:03.899Z,98326.38
2024-03-14T19:26:10.622Z,98324.91
2024-03-14T19:29:17.355Z,98327.97
2024-03-14T19:32:23.607Z,98331.44
2024-03-14T19:35:29.493Z,98328.31
2024-03-14T19:38:38.542Z,98323.56
2024-03-14T19:41:44.106Z,98323.72
2024-03-14T19:44:50.442Z,98331.59
2024-03-14T19:47:58.284Z,98322.56
2024-03-14T19:51:05.219Z,98326.00
2024-03-14T19:54:13.166Z,98324.53
2024-03-14T19:57:19.378Z,98306.47
2024-03-14T20:00:24.808Z,98312.03
2024-03-14T20:03:30.999Z,98323.97
2024-03-14T20:06:36.394Z,98317.28
2024-03-14T20:09:45.358Z,98318.88
2024-03-14T20:12:52.066Z,98318.66
2024-03-14T20:15:59.202Z,98317.16
2024-03-14T20:19:06.017Z,98319.75
2024-03-14T20:22:14.064Z,98311.44
2024-03-14T20:25:24.089Z,98303.50
2024-03-14T20:28:30.772Z,98317.88
2024-03-14T20:31:36.221Z,98314.09
2024-03-14T20:34:46.923Z,98311.25
2024-03-14T20:37:54.008Z,98310.78
2024-03-14T20:41:06.935Z,98306.00
2024-03-14T20:44:13.292Z,98306.47
2024-03-14T20:47:20.445Z,98307.44
2024-03-14T20:50:26.074Z,98298.63
2024-03-14T20:53:35.211Z,98304.66
2024-03-14T20:56:51.260Z,98300.56
2024-03-14T21:00:02.097Z,98309.38
2024-03-14T21:03:09.597Z,98298.88
2024-03-14T21:06:15.941Z,98304.94
2024-03-14T21:09:26.201Z,98307.06
2024-03-14T21:12:39.626Z,98299.59
2024-03-14T21:15:45.816Z,98305.28
2024-03-14T21:18:55.387Z,98304.63
2024-03-14T21:22:00.772Z,98306.56
2024-03-14T21:25:08.571Z,98304.56
2024-03-14T21:28:16.528Z,98308.31
2024-03-14T21:31:22.889Z,98312.03
2024-03-14T21:34:29.234Z,98303.25
2024-03-14T21:37:35.516Z,98306.66
2024-03-14T21:40:40.801Z,98304.06
2024-03-14T21:43:49.898Z,98314.38
2024-03-14T21:46:56.218Z,98280.63
2024-03-14T21:50:04.869Z,98304.56
2024-03-14T21:53:10.433Z,98302.94
2024-03-14T21:56:16.763Z,98306.53
2024-03-14T21:59:24.726Z,98302.09
2024-03-14T22:02:30.869Z,98303.75
2024-03-14T22:05:39.197Z,98303.91
2024-03-14T22:08:45.691Z,98301.28
2024-03-14T22:11:51.456Z,98296.22
2024-03-14T22:15:01.271Z,98303.38
2024-03-14T22:18:09.000Z,98313.31
2024-03-14T22:21:15.880Z,98285.78
2024-03-14T22:24:21.223Z,98309.38
2024-03-14T22:27:27.441Z,98300.03
2024-03-14T22:30:35.497Z,98289.06
2024-03-14T22:33:42.509Z,98298.03
2024-03-14T22:36:47.978Z,98296.41
2024-03-14T22:39:54.286Z,98298.84
2024-03-14T22:42:59.941Z,98301.31
2024-03-14T22:46:10.242Z,98290.06
2024-03-14T22:49:15.818Z,98283.50
2024-03-14T22:52:22.670Z,98280.88
2024-03-14T22:55:28.004Z,98272.16
2024-03-14T22:58:34.175Z,98278.88
2024-03-14T23:01:43.593Z,98283.59
2024-03-14T23:04:49.865Z,98274.56
2024-03-14T23:07:55.579Z,98277.47
2024-03-14T23:11:01.869Z,98277.09
2024-03-14T23:14:08.081Z,98276.88
2024-03-14T23:17:19.352Z,98270.75
2024-03-14T23:20:28.197Z,98269.41
2024-03-14T23:23:34.367Z,98262.63
2024-03-14T23:26:39.754Z,98266.94
2024-03-14T23:29:45.891Z,98267.53
2024-03-14T23:32:54.271Z,98270.28
2024-03-14T23:36:00.534Z,98270.94
2024-03-14T23:39:06.663Z,98253.81
2024-03-14T23:42:13.486Z,98270.50
2024-03-14T23:45:20.057Z,98284.06
2024-03-14T23:48:31.212Z,98279.44
2024-03-14T23:51:36.694Z,98275.84
2024-03-14T23:54:43.247Z,98276.38
2024-03-14T23:57:48.932Z,98276.91
